createdAt,value
2023-01-12T00:02:22.836Z,99807.81
2023-01-12T00:04:49.655Z,99806.81
2023-01-12T00:07:17.891Z,99808.09
2023-01-12T00:09:44.667Z,99800.03
2023-01-12T00:12:12.139Z,99794.19
2023-01-12T00:14:39.256Z,99792.91
2023-01-12T00:17:06.642Z,99789.41
2023-01-12T00:19:34.102Z,99787.97
2023-01-12T00:22:07.645Z,99788.78
2023-01-12T00:24:46.034Z,99792.84
2023-01-12T00:27:16.044Z,99798.31
2023-01-12T00:29:43.034Z,99803.16
2023-01-12T00:32:18.735Z,99804.25
2023-01-12T00:34:45.517Z,99812.75
2023-01-12T00:37:12.714Z,99797.75
2023-01-12T00:39:42.952Z,99795.13
2023-01-12T00:42:31.615Z,99803.25
2023-01-12T00:45:17.297Z,99807.25
2023-01-12T00:47:44.062Z,99806.44
2023-01-12T00:50:10.810Z,99808.34
2023-01-12T00:52:37.496Z,99804.66
2023-01-12T00:55:04.530Z,99804.34
2023-01-12T00:57:31.188Z,99800.00
2023-01-12T01:00:00.171Z,99800.59
2023-01-12T01:02:28.373Z,99795.03
2023-01-12T01:04:55.756Z,99796.69
2023-01-12T01:07:22.939Z,99787.47
2023-01-12T01:09:50.023Z,99806.91
2023-01-12T01:12:17.244Z,99796.97
2023-01-12T01:14:43.952Z,99802.97
2023-01-12T01:17:10.611Z,99804.81
2023-01-12T01:19:37.227Z,99810.38
2023-01-12T01:22:04.129Z,99798.03
2023-01-12T01:24:30.814Z,99815.09
2023-01-12T01:26:57.448Z,99812.91
2023-01-12T01:29:24.079Z,99811.94
2023-01-12T01:31:50.838Z,99813.66
2023-01-12T01:34:18.023Z,99812.47
2023-01-12T01:36:44.733Z,99809.03
2023-01-12T01:39:12.236Z,99820.84
2023-01-12T01:41:38.939Z,99815.75
2023-01-12T01:44:30.213Z,99820.22
2023-01-12T01:47:01.252Z,99817.00
2023-01-12T01:49:41.808Z,99826.88
2023-01-12T01:52:37.598Z,99810.88
2023-01-12T01:55:08.686Z,99816.91
2023-01-12T01:57:50.920Z,99817.16
2023-01-12T02:00:18.012Z,99813.94
2023-01-12T02:02:47.255Z,99824.56
2023-01-12T02:05:19.118Z,99823.41
2023-01-12T02:07:47.349Z,99822.38
2023-01-12T02:10:14.356Z,99806.25
2023-01-12T02:12:59.961Z,99807.97
2023-01-12T02:15:49.331Z,99817.41
2023-01-12T02:18:41.009Z,99820.25
2023-01-12T02:21:18.045Z,99826.22
2023-01-12T02:23:53.835Z,99822.63
2023-01-12T02:27:07.433Z,99823.69
2023-01-12T02:29:58.848Z,99831.66
2023-01-12T02:32:37.385Z,99827.03
2023-01-12T02:35:35.671Z,99826.31
2023-01-12T13:20:16.626Z,99976.00
2023-01-12T13:22:51.128Z,99985.69
2023-01-12T13:25:20.714Z,99981.22
2023-01-12T13:28:07.784Z,99977.72
2023-01-12T13:30:41.490Z,99968.91
2023-01-12T13:33:17.136Z,99978.69
2023-01-12T13:35:47.005Z,99971.09
2023-01-12T13:38:44.136Z,99971.63
2023-01-12T13:41:13.588Z,99964.78
2023-01-12T13:44:01.009Z,99972.34
2023-01-12T13:46:32.639Z,99965.31
2023-01-12T13:49:00.337Z,99970.53
2023-01-12T13:51:48.473Z,99970.50
2023-01-12T13:54:16.474Z,99964.50
2023-01-12T13:56:52.458Z,99971.66
2023-01-12T13:59:19.614Z,99975.09
2023-01-12T14:01:48.520Z,99972.66
2023-01-12T14:04:17.424Z,99973.03
2023-01-12T14:06:59.606Z,99970.75
2023-01-12T14:09:38.459Z,99968.38
2023-01-12T14:12:27.078Z,99972.91
2023-01-12T14:15:33.838Z,99978.41
2023-01-12T14:18:20.820Z,99978.66
2023-01-12T14:20:51.906Z,99973.38
2023-01-12T14:23:29.208Z,99980.53
2023-01-12T14:26:10.823Z,99984.66
2023-01-12T14:28:39.697Z,99988.75
2023-01-12T14:31:07.791Z,99995.09
2023-01-12T14:33:37.656Z,99995.81
2023-01-12T14:36:08.372Z,99993.94
2023-01-12T14:38:39.907Z,99996.47
2023-01-12T14:41:32.353Z,100004.25
2023-01-12T14:44:17.576Z,100001.31
2023-01-12T14:46:50.438Z,100004.41
2023-01-12T14:49:26.095Z,99997.41
2023-01-12T14:51:55.259Z,100001.19
2023-01-12T14:54:26.293Z,100006.41
2023-01-12T14:57:03.493Z,100009.78
2023-01-12T14:59:33.828Z,100006.28
2023-01-12T15:02:18.463Z,100004.88
2023-01-12T15:05:02.751Z,100002.06
2023-01-12T15:07:36.213Z,100004.53
2023-01-12T15:10:27.532Z,100015.00
2023-01-12T15:12:56.998Z,100011.03
2023-01-12T15:15:26.252Z,100016.34
2023-01-12T15:18:13.540Z,100018.69
2023-01-12T15:21:01.713Z,100016.34
2023-01-12T15:23:55.889Z,100023.25
2023-01-12T15:26:22.679Z,100015.84
2023-01-12T15:28:49.883Z,100024.91
2023-01-12T15:31:23.692Z,100026.06
2023-01-12T15:33:50.361Z,100031.06
2023-01-12T15:36:17.041Z,100036.03
2023-01-12T15:38:43.777Z,100043.78
2023-01-12T15:41:43.336Z,100048.34
2023-01-12T15:44:15.001Z,100054.59
2023-01-12T15:46:42.872Z,100047.38
2023-01-12T15:49:13.380Z,100048.88
2023-01-12T15:51:41.586Z,100054.84
2023-01-12T15:54:12.091Z,100056.19
2023-01-12T15:56:38.779Z,100054.84
2023-01-12T15:59:05.576Z,100047.75
2023-01-12T16:01:41.593Z,100053.19
2023-01-12T16:04:43.146Z,100049.38
2023-01-12T16:07:10.524Z,100059.31
2023-01-12T16:09:37.284Z,100055.69
2023-01-12T16:12:04.204Z,100061.44
2023-01-12T16:14:30.866Z,100062.78
2023-01-12T16:16:57.531Z,100067.72
2023-01-12T16:19:24.343Z,100066.72
2023-01-12T16:21:55.255Z,100065.25
2023-01-12T16:24:24.213Z,100071.34
2023-01-12T16:26:50.874Z,100073.97
2023-01-12T16:29:19.341Z,100068.88
2023-01-12T16:31:46.122Z,100077.28
2023-01-12T16:34:12.927Z,100065.41
2023-01-12T16:36:39.625Z,100083.03
2023-01-12T16:39:06.272Z,100075.78
2023-01-12T16:41:32.912Z,100091.47
2023-01-12T16:43:59.638Z,100084.22
2023-01-12T16:46:26.505Z,100083.22
2023-01-12T16:48:55.355Z,100096.56
2023-01-12T16:51:22.210Z,100088.31
2023-01-12T16:53:48.973Z,100086.50
2023-01-12T16:56:16.459Z,100090.00
2023-01-12T16:58:48.139Z,100070.84
2023-01-12T17:01:18.680Z,100086.88
2023-01-12T17:03:45.584Z,100090.34
2023-01-12T17:06:19.553Z,100082.72
2023-01-12T17:08:47.019Z,100096.06
2023-01-12T17:11:19.780Z,100098.06
2023-01-12T17:13:55.429Z,100107.97
2023-01-12T17:16:24.519Z,100093.41
2023-01-12T17:18:51.812Z,100097.06
2023-01-12T17:21:19.386Z,100106.13
2023-01-12T17:23:46.917Z,100109.75
2023-01-12T17:26:17.808Z,100107.94
2023-01-12T17:28:45.485Z,100086.16
2023-01-12T17:31:15.894Z,100098.22
2023-01-12T17:33:43.442Z,100114.06
2023-01-12T17:36:12.231Z,100121.28
2023-01-12T17:38:39.842Z,100122.63
2023-01-12T17:41:08.400Z,100115.38
2023-01-12T17:43:37.325Z,100100.19
2023-01-12T17:46:04.570Z,100121.75
2023-01-12T17:48:31.232Z,100110.38
2023-01-12T17:51:00.412Z,100120.41
2023-01-12T17:53:29.680Z,100116.78
2023-01-12T17:55:56.552Z,100116.94
2023-01-12T17:58:30.221Z,100110.88
2023-01-12T18:01:04.490Z,100121.41
2023-01-12T18:03:33.397Z,100124.16
2023-01-12T18:06:06.902Z,100114.25
2023-01-12T18:08:39.233Z,100122.66
2023-01-12T18:11:16.964Z,100119.53
2023-01-12T18:13:46.019Z,100129.38
2023-01-12T18:16:18.872Z,100125.13
2023-01-12T18:18:46.321Z,100131.06
2023-01-12T18:21:16.084Z,100129.28
2023-01-12T18:23:45.983Z,100134.56
2023-01-12T18:26:17.555Z,100127.50
2023-01-12T18:28:44.733Z,100131.59
2023-01-12T18:31:19.308Z,100121.53
2023-01-12T18:33:50.185Z,100118.56
2023-01-12T18:36:25.969Z,100128.94
2023-01-12T18:38:54.065Z,100120.72
2023-01-12T18:41:41.133Z,100123.06
2023-01-12T18:44:09.006Z,100124.84
2023-01-12T18:46:59.357Z,100123.06
2023-01-12T18:49:28.495Z,100117.28
2023-01-12T18:52:14.183Z,100119.41
2023-01-12T18:54:51.866Z,100106.91
2023-01-12T18:57:20.790Z,100132.47
2023-01-12T18:59:49.359Z,100125.22
2023-01-12T19:02:17.824Z,100122.78
2023-01-12T19:04:49.780Z,100120.94
2023-01-12T19:07:50.597Z,100126.06
2023-01-12T19:10:17.500Z,100113.69
2023-01-12T19:12:46.927Z,100129.88
2023-01-12T19:15:32.409Z,100128.69
2023-01-12T19:17:59.290Z,100136.59
2023-01-12T19:20:30.416Z,100122.75
2023-01-12T19:23:16.016Z,100126.69
2023-01-12T19:26:01.308Z,100137.28
2023-01-12T19:28:38.317Z,100139.41
2023-01-12T19:31:10.755Z,100143.84
2023-01-12T19:33:38.537Z,100143.72
2023-01-12T19:36:07.726Z,100143.56
2023-01-12T19:38:36.129Z,100140.91
2023-01-12T19:41:30.819Z,100150.19
2023-01-12T19:44:00.965Z,100146.81
2023-01-12T19:46:28.131Z,100144.16
2023-01-12T19:48:54.807Z,100143.97
2023-01-12T19:51:21.433Z,100144.31
2023-01-12T19:53:48.046Z,100148.75
2023-01-12T19:56:14.931Z,100142.00
2023-01-12T19:58:42.362Z,100137.53
2023-01-12T20:01:09.164Z,100143.13
2023-01-12T20:03:36.354Z,100140.03
2023-01-12T20:06:07.678Z,100147.06
2023-01-12T20:08:34.400Z,100150.72
2023-01-12T20:11:04.016Z,100157.28
2023-01-12T20:13:32.577Z,100150.53
2023-01-12T20:15:59.371Z,100149.81
2023-01-12T20:18:26.142Z,100151.91
2023-01-12T20:20:53.566Z,100153.66
2023-01-12T20:23:20.440Z,100149.75
2023-01-12T20:25:47.265Z,100151.75
2023-01-12T20:28:14.540Z,100156.25
2023-01-12T20:30:43.065Z,100150.47
2023-01-12T20:33:10.667Z,100149.78
2023-01-12T20:35:41.139Z,100138.44
2023-01-12T20:38:13.373Z,100152.94
2023-01-12T20:40:40.137Z,100149.13
2023-01-12T20:43:06.879Z,100135.28
2023-01-12T20:45:33.523Z,100152.25
2023-01-12T20:48:00.255Z,100134.94
2023-01-12T20:50:26.887Z,100161.31
2023-01-12T20:52:54.349Z,100164.09
2023-01-12T20:55:21.356Z,100161.72
2023-01-12T20:57:48.195Z,100164.94
2023-01-12T21:00:15.653Z,100162.13
2023-01-12T21:02:42.326Z,100165.44
2023-01-12T21:05:09.248Z,100166.66
2023-01-12T21:07:35.987Z,100167.66
2023-01-12T21:10:02.652Z,100165.97
2023-01-12T21:12:29.353Z,100163.19
2023-01-12T21:14:56.080Z,100163.25
2023-01-12T21:17:22.740Z,100147.72
2023-01-12T21:19:49.392Z,100156.38
2023-01-12T21:22:16.361Z,100141.72
2023-01-12T21:24:43.014Z,100158.09
2023-01-12T21:27:09.715Z,100154.91
2023-01-12T21:29:36.314Z,100156.78
2023-01-12T21:32:03.141Z,100161.66
2023-01-12T21:34:29.879Z,100163.41
2023-01-12T21:36:57.171Z,100164.00
2023-01-12T21:39:23.827Z,100160.78
2023-01-12T21:42:08.966Z,100148.44
2023-01-12T21:44:35.720Z,100149.75
2023-01-12T21:47:02.383Z,100126.03
2023-01-12T21:49:29.057Z,100142.50
2023-01-12T21:51:55.659Z,100139.19
2023-01-12T21:54:22.349Z,100143.22
2023-01-12T21:56:49.163Z,100140.72
2023-01-12T21:59:15.830Z,100138.94
2023-01-12T22:01:42.537Z,100128.41
2023-01-12T22:04:09.443Z,100126.00
2023-01-12T22:06:36.237Z,100124.75
2023-01-12T22:09:03.064Z,100125.94
2023-01-12T22:11:29.686Z,100131.25
2023-01-12T22:13:56.881Z,100129.13
2023-01-12T22:16:24.032Z,100128.31
2023-01-12T22:18:51.259Z,100131.81
2023-01-12T22:21:20.159Z,100133.47
2023-01-12T22:23:47.543Z,100131.53
2023-01-12T22:26:16.196Z,100129.56
2023-01-12T22:28:44.976Z,100128.41
2023-01-12T22:31:17.010Z,100117.22
2023-01-12T22:33:48.553Z,100101.00
2023-01-12T22:36:15.257Z,100118.56
2023-01-12T22:38:42.364Z,100115.09
2023-01-12T22:41:11.771Z,100120.38
2023-01-12T22:43:40.892Z,100099.44
2023-01-12T22:46:19.060Z,100115.59
2023-01-12T22:48:51.874Z,100103.63
2023-01-12T22:51:26.919Z,100112.91
2023-01-12T22:53:55.553Z,100117.19
2023-01-12T22:56:22.699Z,100117.03
2023-01-12T22:58:52.365Z,100112.41
2023-01-12T23:01:22.146Z,100110.16
2023-01-12T23:03:54.321Z,100123.78
2023-01-12T23:06:22.407Z,100121.28
2023-01-12T23:08:50.265Z,100111.34
2023-01-12T23:11:20.176Z,100119.06
2023-01-12T23:13:47.185Z,100107.50
2023-01-12T23:16:16.249Z,100108.34
2023-01-12T23:18:45.161Z,100115.41
2023-01-12T23:21:16.370Z,100109.81
2023-01-12T23:23:48.502Z,100103.25
2023-01-12T23:26:19.129Z,100102.75
2023-01-12T23:28:48.254Z,100105.72
2023-01-12T23:31:19.060Z,100107.91
2023-01-12T23:33:45.743Z,100090.09
2023-01-12T23:36:18.209Z,100109.44
2023-01-12T23:38:45.238Z,100105.16
2023-01-12T23:41:20.712Z,100107.13
2023-01-12T23:43:48.969Z,100104.84
2023-01-12T23:46:22.656Z,100109.59
2023-01-12T23:48:54.771Z,100112.69
2023-01-12T23:51:22.923Z,100122.22
2023-01-12T23:53:52.716Z,100120.97
2023-01-12T23:56:19.676Z,100120.66
2023-01-12T23:58:47.022Z,100119.91
